sensor_id;sensor_type;location;lat;lon;timestamp;pressure;altitude;pressure_sealevel;temperature;humidity
57248;BME280;55809;46.618;10.764;2023-05-19T00:00:22;93075.97;;;13.50;69.42
57248;BME280;55809;46.618;10.764;2023-05-19T00:02:54;93078.97;;;13.55;68.68
57248;BME280;55809;46.618;10.764;2023-05-19T00:05:22;93067.19;;;13.42;69.00
57248;BME280;55809;46.618;10.764;2023-05-19T00:07:51;93082.22;;;13.47;69.70
57248;BME280;55809;46.618;10.764;2023-05-19T00:10:23;93078.28;;;13.51;68.92
57248;BME280;55809;46.618;10.764;2023-05-19T00:12:53;93076.31;;;13.52;68.91
57248;BME280;55809;46.618;10.764;2023-05-19T00:15:22;93081.69;;;13.55;69.75
57248;BME280;55809;46.618;10.764;2023-05-19T00:17:50;93082.53;;;13.52;69.23
57248;BME280;55809;46.618;10.764;2023-05-19T00:20:21;93078.16;;;13.58;68.73
57248;BME280;55809;46.618;10.764;2023-05-19T00:22:49;93052.03;;;13.45;68.78
57248;BME280;55809;46.618;10.764;2023-05-19T00:25:17;93069.25;;;13.58;69.42
57248;BME280;55809;46.618;10.764;2023-05-19T00:27:48;93054.63;;;13.52;69.25
57248;BME280;55809;46.618;10.764;2023-05-19T00:30:18;93079.09;;;13.72;69.67
57248;BME280;55809;46.618;10.764;2023-05-19T00:32:49;93046.31;;;13.39;70.15
57248;BME280;55809;46.618;10.764;2023-05-19T00:35:17;93081.81;;;13.48;70.75
57248;BME280;55809;46.618;10.764;2023-05-19T00:37:53;93064.72;;;13.28;70.42
57248;BME280;55809;46.618;10.764;2023-05-19T00:40:23;93075.16;;;13.29;72.47
57248;BME280;55809;46.618;10.764;2023-05-19T00:42:54;93094.03;;;13.36;71.26
57248;BME280;55809;46.618;10.764;2023-05-19T00:45:23;93030.72;;;12.96;70.52
57248;BME280;55809;46.618;10.764;2023-05-19T00:47:52;93093.38;;;13.52;69.16
57248;BME280;55809;46.618;10.764;2023-05-19T00:50:20;93065.91;;;13.27;69.99
57248;BME280;55809;46.618;10.764;2023-05-19T00:52:53;93075.69;;;13.44;70.53
57248;BME280;55809;46.618;10.764;2023-05-19T00:55:21;93083.38;;;13.46;70.59
57248;BME280;55809;46.618;10.764;2023-05-19T00:57:51;93087.34;;;13.41;71.28
57248;BME280;55809;46.618;10.764;2023-05-19T01:00:20;93081.28;;;13.33;71.52
57248;BME280;55809;46.618;10.764;2023-05-19T01:02:48;93061.06;;;13.11;72.29
57248;BME280;55809;46.618;10.764;2023-05-19T01:05:17;93085.13;;;13.36;72.44
57248;BME280;55809;46.618;10.764;2023-05-19T01:07:46;93092.00;;;13.41;73.57
57248;BME280;55809;46.618;10.764;2023-05-19T01:10:17;93088.94;;;13.38;73.02
57248;BME280;55809;46.618;10.764;2023-05-19T01:12:48;93094.72;;;13.41;71.76
57248;BME280;55809;46.618;10.764;2023-05-19T01:15:18;93092.41;;;13.39;72.45
57248;BME280;55809;46.618;10.764;2023-05-19T01:17:53;93098.19;;;13.41;72.05
57248;BME280;55809;46.618;10.764;2023-05-19T01:20:28;93092.78;;;13.41;72.55
57248;BME280;55809;46.618;10.764;2023-05-19T01:23:33;93100.19;;;13.37;73.37
57248;BME280;55809;46.618;10.764;2023-05-19T01:32:11;93100.66;;;13.32;73.67
57248;BME280;55809;46.618;10.764;2023-05-19T01:34:45;93095.72;;;13.27;74.36
57248;BME280;55809;46.618;10.764;2023-05-19T01:37:14;93106.13;;;13.28;75.07
57248;BME280;55809;46.618;10.764;2023-05-19T01:39:44;93084.28;;;13.12;75.03
57248;BME280;55809;46.618;10.764;2023-05-19T01:42:13;93079.72;;;13.05;76.06
57248;BME280;55809;46.618;10.764;2023-05-19T01:44:43;93086.72;;;13.06;75.87
57248;BME280;55809;46.618;10.764;2023-05-19T01:47:16;93103.63;;;13.14;76.20
57248;BME280;55809;46.618;10.764;2023-05-19T01:49:45;93111.00;;;13.13;76.32
57248;BME280;55809;46.618;10.764;2023-05-19T01:52:13;93113.75;;;13.10;76.14
57248;BME280;55809;46.618;10.764;2023-05-19T01:54:41;93075.34;;;12.88;76.09
57248;BME280;55809;46.618;10.764;2023-05-19T01:57:22;93094.38;;;12.84;76.59
57248;BME280;55809;46.618;10.764;2023-05-19T01:59:59;93106.22;;;12.94;76.42
57248;BME280;55809;46.618;10.764;2023-05-19T02:02:42;93111.22;;;12.96;76.47
57248;BME280;55809;46.618;10.764;2023-05-19T02:05:20;93103.63;;;12.87;76.27
57248;BME280;55809;46.618;10.764;2023-05-19T02:07:57;93118.66;;;12.91;76.60
57248;BME280;55809;46.618;10.764;2023-05-19T02:10:29;93086.34;;;12.77;76.45
57248;BME280;55809;46.618;10.764;2023-05-19T02:13:00;93118.59;;;12.95;76.30
57248;BME280;55809;46.618;10.764;2023-05-19T02:15:38;93089.75;;;12.81;75.77
57248;BME280;55809;46.618;10.764;2023-05-19T02:18:11;93112.31;;;13.02;76.10
57248;BME280;55809;46.618;10.764;2023-05-19T02:20:43;93076.16;;;12.58;76.77
57248;BME280;55809;46.618;10.764;2023-05-19T02:23:14;93097.00;;;12.61;77.40
57248;BME280;55809;46.618;10.764;2023-05-19T02:25:43;93118.47;;;12.75;77.25
57248;BME280;55809;46.618;10.764;2023-05-19T02:28:11;93118.09;;;12.77;77.48
57248;BME280;55809;46.618;10.764;2023-05-19T02:30:39;93108.41;;;12.76;77.59
57248;BME280;55809;46.618;10.764;2023-05-19T02:33:09;93086.72;;;12.49;78.22
57248;BME280;55809;46.618;10.764;2023-05-19T02:35:37;93119.56;;;12.51;79.05
57248;BME280;55809;46.618;10.764;2023-05-19T02:38:06;93113.88;;;12.41;79.40
57248;BME280;55809;46.618;10.764;2023-05-19T02:40:33;93116.56;;;12.41;79.60
57248;BME280;55809;46.618;10.764;2023-05-19T02:43:02;93110.44;;;12.37;80.02
57248;BME280;55809;46.618;10.764;2023-05-19T02:45:30;93115.88;;;12.34;80.28
57248;BME280;55809;46.618;10.764;2023-05-19T02:47:59;93069.03;;;12.06;80.30
57248;BME280;55809;46.618;10.764;2023-05-19T02:50:32;93110.03;;;12.39;80.17
57248;BME280;55809;46.618;10.764;2023-05-19T02:53:01;93116.63;;;12.38;80.58
57248;BME280;55809;46.618;10.764;2023-05-19T02:55:29;93067.81;;;12.14;80.46
57248;BME280;55809;46.618;10.764;2023-05-19T02:57:56;93108.84;;;12.40;80.49
57248;BME280;55809;46.618;10.764;2023-05-19T03:00:25;93108.03;;;12.43;80.45
57248;BME280;55809;46.618;10.764;2023-05-19T03:02:53;93075.28;;;12.34;80.03
57248;BME280;55809;46.618;10.764;2023-05-19T03:05:21;93093.97;;;12.55;79.58
57248;BME280;55809;46.618;10.764;2023-05-19T03:07:50;93088.47;;;12.62;79.22
57248;BME280;55809;46.618;10.764;2023-05-19T03:10:19;93069.16;;;12.60;78.99
57248;BME280;55809;46.618;10.764;2023-05-19T03:12:46;93079.91;;;12.67;78.78
57248;BME280;55809;46.618;10.764;2023-05-19T03:15:16;93066.78;;;12.62;78.82
57248;BME280;55809;46.618;10.764;2023-05-19T03:17:47;93085.22;;;12.75;78.78
57248;BME280;55809;46.618;10.764;2023-05-19T03:20:16;93093.38;;;12.71;79.26
57248;BME280;55809;46.618;10.764;2023-05-19T03:22:44;93072.34;;;12.52;79.31
57248;BME280;55809;46.618;10.764;2023-05-19T03:25:16;93078.91;;;12.54;79.57
57248;BME280;55809;46.618;10.764;2023-05-19T03:27:44;93099.13;;;12.73;78.88
57248;BME280;55809;46.618;10.764;2023-05-19T03:30:13;93106.13;;;12.74;78.92
57248;BME280;55809;46.618;10.764;2023-05-19T03:32:41;93107.75;;;12.68;79.58
57248;BME280;55809;46.618;10.764;2023-05-19T03:35:09;93109.47;;;12.55;79.96
57248;BME280;55809;46.618;10.764;2023-05-19T03:37:40;93115.72;;;12.48;80.36
57248;BME280;55809;46.618;10.764;2023-05-19T03:40:08;93111.56;;;12.40;80.74
57248;BME280;55809;46.618;10.764;2023-05-19T03:42:37;93102.75;;;12.32;81.37
57248;BME280;55809;46.618;10.764;2023-05-19T03:45:06;93107.38;;;12.35;81.45
57248;BME280;55809;46.618;10.764;2023-05-19T03:47:34;93102.81;;;12.29;81.02
57248;BME280;55809;46.618;10.764;2023-05-19T03:50:03;93110.84;;;12.36;81.27
57248;BME280;55809;46.618;10.764;2023-05-19T03:52:30;93072.88;;;12.09;81.12
57248;BME280;55809;46.618;10.764;2023-05-19T03:54:59;93107.78;;;12.30;81.19
57248;BME280;55809;46.618;10.764;2023-05-19T03:57:27;93113.00;;;12.14;82.11
57248;BME280;55809;46.618;10.764;2023-05-19T03:59:57;93113.13;;;12.03;82.45
57248;BME280;55809;46.618;10.764;2023-05-19T04:02:25;93119.22;;;12.11;82.26
57248;BME280;55809;46.618;10.764;2023-05-19T04:04:54;93117.69;;;12.10;82.26
57248;BME280;55809;46.618;10.764;2023-05-19T04:07:21;93110.72;;;12.12;81.55
57248;BME280;55809;46.618;10.764;2023-05-19T04:09:48;93128.31;;;12.31;81.41
57248;BME280;55809;46.618;10.764;2023-05-19T04:12:16;93104.03;;;12.20;81.06
57248;BME280;55809;46.618;10.764;2023-05-19T04:14:45;93124.66;;;12.45;80.72
57248;BME280;55809;46.618;10.764;2023-05-19T04:17:15;93138.00;;;12.59;80.56
57248;BME280;55809;46.618;10.764;2023-05-19T04:19:44;93141.03;;;12.65;80.10
57248;BME280;55809;46.618;10.764;2023-05-19T04:22:12;93133.63;;;12.69;79.41
57248;BME280;55809;46.618;10.764;2023-05-19T04:24:39;93144.09;;;12.71;79.34
57248;BME280;55809;46.618;10.764;2023-05-19T04:27:07;93142.53;;;12.70;79.54
57248;BME280;55809;46.618;10.764;2023-05-19T04:29:43;93135.59;;;12.68;80.01
57248;BME280;55809;46.618;10.764;2023-05-19T04:32:19;93145.56;;;12.75;79.36
57248;BME280;55809;46.618;10.764;2023-05-19T04:34:48;93142.47;;;12.73;79.85
57248;BME280;55809;46.618;10.764;2023-05-19T04:37:19;93102.31;;;12.37;80.13
57248;BME280;55809;46.618;10.764;2023-05-19T04:39:46;93143.72;;;12.68;80.32
57248;BME280;55809;46.618;10.764;2023-05-19T04:42:14;93145.59;;;12.72;80.42
57248;BME280;55809;46.618;10.764;2023-05-19T04:44:45;93136.28;;;12.73;80.90
57248;BME280;55809;46.618;10.764;2023-05-19T04:47:20;93138.19;;;12.76;80.65
57248;BME280;55809;46.618;10.764;2023-05-19T04:49:54;93143.97;;;12.78;81.22
57248;BME280;55809;46.618;10.764;2023-05-19T04:52:22;93134.41;;;12.70;81.37
57248;BME280;55809;46.618;10.764;2023-05-19T04:54:51;93149.84;;;12.73;81.99
57248;BME280;55809;46.618;10.764;2023-05-19T04:57:19;93096.41;;;12.46;81.78
57248;BME280;55809;46.618;10.764;2023-05-19T04:59:46;93147.50;;;12.75;81.99
57248;BME280;55809;46.618;10.764;2023-05-19T05:02:20;93142.75;;;12.82;82.12
57248;BME280;55809;46.618;10.764;2023-05-19T05:04:47;93106.22;;;12.63;82.38
57248;BME280;55809;46.618;10.764;2023-05-19T05:07:19;93125.38;;;12.80;82.11
57248;BME280;55809;46.618;10.764;2023-05-19T05:09:46;93144.09;;;12.98;82.85
57248;BME280;55809;46.618;10.764;2023-05-19T05:12:14;93143.34;;;12.97;83.20
57248;BME280;55809;46.618;10.764;2023-05-19T05:14:44;93109.91;;;12.80;83.62
57248;BME280;55809;46.618;10.764;2023-05-19T05:17:12;93140.94;;;13.03;83.01
57248;BME280;55809;46.618;10.764;2023-05-19T05:19:44;93133.53;;;13.07;82.04
57248;BME280;55809;46.618;10.764;2023-05-19T05:22:14;93140.16;;;13.02;81.55
57248;BME280;55809;46.618;10.764;2023-05-19T05:24:43;93113.66;;;12.86;81.46
57248;BME280;55809;46.618;10.764;2023-05-19T05:27:11;93141.28;;;13.05;81.28
57248;BME280;55809;46.618;10.764;2023-05-19T05:29:40;93138.13;;;13.10;80.68
57248;BME280;55809;46.618;10.764;2023-05-19T05:32:07;93140.75;;;13.17;80.37
57248;BME280;55809;46.618;10.764;2023-05-19T05:34:36;93128.41;;;13.12;80.91
57248;BME280;55809;46.618;10.764;2023-05-19T05:37:09;93121.06;;;13.13;81.68
57248;BME280;55809;46.618;10.764;2023-05-19T05:39:37;93137.84;;;13.31;81.90
57248;BME280;55809;46.618;10.764;2023-05-19T05:42:06;93136.25;;;13.34;81.23
57248;BME280;55809;46.618;10.764;2023-05-19T05:44:35;93139.34;;;13.36;79.97
57248;BME280;55809;46.618;10.764;2023-05-19T05:47:06;93114.72;;;13.23;79.35
57248;BME280;55809;46.618;10.764;2023-05-19T05:49:35;93146.53;;;13.46;78.99
57248;BME280;55809;46.618;10.764;2023-05-19T05:52:19;93146.06;;;13.51;78.98
57248;BME280;55809;46.618;10.764;2023-05-19T05:54:49;93146.00;;;13.55;78.04
57248;BME280;55809;46.618;10.764;2023-05-19T05:57:16;93149.09;;;13.57;78.48
57248;BME280;55809;46.618;10.764;2023-05-19T05:59:45;93152.94;;;13.59;79.69
57248;BME280;55809;46.618;10.764;2023-05-19T06:02:13;93147.84;;;13.61;79.72
57248;BME280;55809;46.618;10.764;2023-05-19T06:04:42;93134.00;;;13.56;80.38
57248;BME280;55809;46.618;10.764;2023-05-19T06:07:12;93158.16;;;13.70;80.21
57248;BME280;55809;46.618;10.764;2023-05-19T06:09:43;93147.19;;;13.77;79.79
57248;BME280;55809;46.618;10.764;2023-05-19T06:12:11;93147.69;;;13.72;79.53
57248;BME280;55809;46.618;10.764;2023-05-19T06:14:39;93148.56;;;13.66;79.76
57248;BME280;55809;46.618;10.764;2023-05-19T06:17:10;93148.56;;;13.66;79.62
57248;BME280;55809;46.618;10.764;2023-05-19T06:19:37;93084.91;;;13.23;79.36
57248;BME280;55809;46.618;10.764;2023-05-19T06:22:04;93149.66;;;13.68;78.66
57248;BME280;55809;46.618;10.764;2023-05-19T06:24:31;93150.84;;;13.67;77.73
57248;BME280;55809;46.618;10.764;2023-05-19T06:26:59;93150.84;;;13.67;76.64
57248;BME280;55809;46.618;10.764;2023-05-19T06:29:27;93154.69;;;13.70;76.62
57248;BME280;55809;46.618;10.764;2023-05-19T06:31:54;93157.66;;;13.79;75.93
57248;BME280;55809;46.618;10.764;2023-05-19T06:34:23;93144.44;;;13.81;75.44
57248;BME280;55809;46.618;10.764;2023-05-19T06:36:51;93098.00;;;13.52;74.75
57248;BME280;55809;46.618;10.764;2023-05-19T06:39:18;93157.16;;;13.84;74.40
57248;BME280;55809;46.618;10.764;2023-05-19T06:41:45;93154.88;;;13.82;76.13
57248;BME280;55809;46.618;10.764;2023-05-19T06:44:14;93144.13;;;13.75;76.07
57248;BME280;55809;46.618;10.764;2023-05-19T06:46:42;93156.09;;;13.78;75.64
57248;BME280;55809;46.618;10.764;2023-05-19T06:49:09;93158.88;;;13.74;76.10
57248;BME280;55809;46.618;10.764;2023-05-19T06:51:36;93158.34;;;13.83;75.32
57248;BME280;55809;46.618;10.764;2023-05-19T06:54:03;93150.41;;;13.72;75.70
57248;BME280;55809;46.618;10.764;2023-05-19T06:56:30;93122.84;;;13.50;76.75
57248;BME280;55809;46.618;10.764;2023-05-19T06:58:57;93163.09;;;13.79;75.99
57248;BME280;55809;46.618;10.764;2023-05-19T07:01:29;93159.13;;;13.83;76.60
57248;BME280;55809;46.618;10.764;2023-05-19T07:03:59;93160.38;;;13.79;77.11
57248;BME280;55809;46.618;10.764;2023-05-19T07:06:26;93166.19;;;13.77;77.51
57248;BME280;55809;46.618;10.764;2023-05-19T07:08:54;93162.97;;;13.86;77.02
57248;BME280;55809;46.618;10.764;2023-05-19T07:11:21;93162.13;;;13.89;77.31
57248;BME280;55809;46.618;10.764;2023-05-19T07:13:48;93162.47;;;13.91;76.47
57248;BME280;55809;46.618;10.764;2023-05-19T07:16:15;93157.09;;;13.88;77.03
57248;BME280;55809;46.618;10.764;2023-05-19T07:18:44;93145.25;;;13.78;77.18
57248;BME280;55809;46.618;10.764;2023-05-19T07:21:11;93147.75;;;13.92;76.63
57248;BME280;55809;46.618;10.764;2023-05-19T07:23:41;93154.16;;;14.02;76.40
57248;BME280;55809;46.618;10.764;2023-05-19T07:26:08;93133.44;;;13.88;76.20
57248;BME280;55809;46.618;10.764;2023-05-19T07:28:35;93152.22;;;14.02;76.33
57248;BME280;55809;46.618;10.764;2023-05-19T07:31:03;93146.06;;;13.98;76.69
57248;BME280;55809;46.618;10.764;2023-05-19T07:33:30;93150.25;;;14.03;76.62
57248;BME280;55809;46.618;10.764;2023-05-19T07:36:01;93151.03;;;14.03;77.41
57248;BME280;55809;46.618;10.764;2023-05-19T07:38:29;93136.59;;;13.87;75.95
57248;BME280;55809;46.618;10.764;2023-05-19T07:40:58;93147.19;;;14.01;76.53
57248;BME280;55809;46.618;10.764;2023-05-19T07:43:25;93147.13;;;14.04;76.71
57248;BME280;55809;46.618;10.764;2023-05-19T07:45:53;93145.13;;;14.08;75.55
57248;BME280;55809;46.618;10.764;2023-05-19T07:48:20;93119.19;;;13.84;76.56
57248;BME280;55809;46.618;10.764;2023-05-19T07:50:49;93129.91;;;13.91;77.43
57248;BME280;55809;46.618;10.764;2023-05-19T07:53:18;93109.22;;;13.77;78.22
57248;BME280;55809;46.618;10.764;2023-05-19T07:55:47;93136.63;;;14.06;77.88
57248;BME280;55809;46.618;10.764;2023-05-19T07:58:14;93147.47;;;14.06;77.54
57248;BME280;55809;46.618;10.764;2023-05-19T08:00:43;93135.22;;;13.98;77.27
57248;BME280;55809;46.618;10.764;2023-05-19T08:03:14;93099.38;;;13.87;76.52
57248;BME280;55809;46.618;10.764;2023-05-19T08:05:42;93109.09;;;13.84;75.36
57248;BME280;55809;46.618;10.764;2023-05-19T08:08:11;93103.56;;;13.68;75.81
57248;BME280;55809;46.618;10.764;2023-05-19T08:10:46;93130.34;;;13.90;75.88
57248;BME280;55809;46.618;10.764;2023-05-19T08:13:14;93134.03;;;13.99;77.16
57248;BME280;55809;46.618;10.764;2023-05-19T08:15:43;93129.78;;;13.98;77.25
57248;BME280;55809;46.618;10.764;2023-05-19T08:18:11;93120.41;;;14.03;75.33
57248;BME280;55809;46.618;10.764;2023-05-19T08:20:38;93042.31;;;13.47;76.29
57248;BME280;55809;46.618;10.764;2023-05-19T08:23:07;93123.41;;;14.08;76.19
57248;BME280;55809;46.618;10.764;2023-05-19T08:25:34;93077.44;;;13.78;76.52
57248;BME280;55809;46.618;10.764;2023-05-19T08:28:02;93125.56;;;14.17;76.22
57248;BME280;55809;46.618;10.764;2023-05-19T08:30:29;93117.78;;;14.19;76.48
57248;BME280;55809;46.618;10.764;2023-05-19T08:32:56;93110.34;;;14.23;75.75
57248;BME280;55809;46.618;10.764;2023-05-19T08:35:24;93093.50;;;14.12;74.28
57248;BME280;55809;46.618;10.764;2023-05-19T08:37:51;93095.72;;;14.17;75.61
57248;BME280;55809;46.618;10.764;2023-05-19T08:40:19;93071.34;;;14.14;75.11
57248;BME280;55809;46.618;10.764;2023-05-19T08:42:47;93080.97;;;14.38;73.30
57248;BME280;55809;46.618;10.764;2023-05-19T08:45:16;93072.41;;;14.40;73.94
57248;BME280;55809;46.618;10.764;2023-05-19T08:47:45;93072.47;;;14.56;74.22
57248;BME280;55809;46.618;10.764;2023-05-19T08:50:15;93114.22;;;15.02;71.84
57248;BME280;55809;46.618;10.764;2023-05-19T08:52:50;93107.56;;;15.03;71.07
57248;BME280;55809;46.618;10.764;2023-05-19T08:55:24;93089.34;;;15.20;69.94
57248;BME280;55809;46.618;10.764;2023-05-19T08:57:59;93077.19;;;15.08;69.06
57248;BME280;55809;46.618;10.764;2023-05-19T09:00:28;93069.97;;;15.01;69.73
57248;BME280;55809;46.618;10.764;2023-05-19T09:02:56;93092.31;;;15.25;71.60
57248;BME280;55809;46.618;10.764;2023-05-19T09:05:24;93074.13;;;15.06;70.44
57248;BME280;55809;46.618;10.764;2023-05-19T09:07:51;93067.91;;;15.06;70.74
57248;BME280;55809;46.618;10.764;2023-05-19T09:10:19;93093.06;;;15.26;70.52
57248;BME280;55809;46.618;10.764;2023-05-19T09:12:46;93091.28;;;15.19;71.29
57248;BME280;55809;46.618;10.764;2023-05-19T09:15:16;93090.28;;;15.30;72.41
57248;BME280;55809;46.618;10.764;2023-05-19T09:17:48;93096.16;;;15.28;72.77
57248;BME280;55809;46.618;10.764;2023-05-19T09:20:16;93082.03;;;15.33;73.64
57248;BME280;55809;46.618;10.764;2023-05-19T09:22:44;93089.03;;;15.34;72.36
57248;BME280;55809;46.618;10.764;2023-05-19T09:25:18;93083.31;;;15.29;71.11
57248;BME280;55809;46.618;10.764;2023-05-19T09:27:46;93040.72;;;15.06;71.78
57248;BME280;55809;46.618;10.764;2023-05-19T09:30:15;93087.63;;;15.26;71.68
57248;BME280;55809;46.618;10.764;2023-05-19T09:32:43;93076.69;;;15.30;71.45
57248;BME280;55809;46.618;10.764;2023-05-19T09:35:14;93081.38;;;15.45;69.58
57248;BME280;55809;46.618;10.764;2023-05-19T09:37:45;93076.28;;;15.47;70.09
57248;BME280;55809;46.618;10.764;2023-05-19T09:40:14;93069.97;;;15.51;70.66
57248;BME280;55809;46.618;10.764;2023-05-19T09:42:41;93070.47;;;15.45;67.90
57248;BME280;55809;46.618;10.764;2023-05-19T09:45:10;93060.44;;;15.42;68.92
57248;BME280;55809;46.618;10.764;2023-05-19T09:47:39;93066.16;;;15.48;68.93
57248;BME280;55809;46.618;10.764;2023-05-19T09:50:12;93055.84;;;15.56;69.85
57248;BME280;55809;46.618;10.764;2023-05-19T09:52:42;93053.50;;;15.74;70.20
57248;BME280;55809;46.618;10.764;2023-05-19T09:55:11;93057.78;;;15.88;69.51
57248;BME280;55809;46.618;10.764;2023-05-19T09:57:43;93049.22;;;15.89;68.80
57248;BME280;55809;46.618;10.764;2023-05-19T10:00:12;93056.34;;;16.00;68.04
57248;BME280;55809;46.618;10.764;2023-05-19T10:02:45;93022.31;;;15.91;67.14
57248;BME280;55809;46.618;10.764;2023-05-19T10:05:24;93048.97;;;16.13;65.88
57248;BME280;55809;46.618;10.764;2023-05-19T10:07:54;93047.72;;;16.30;67.23
57248;BME280;55809;46.618;10.764;2023-05-19T10:10:22;92990.03;;;16.06;64.97
57248;BME280;55809;46.618;10.764;2023-05-19T10:12:50;93040.66;;;16.33;65.80
57248;BME280;55809;46.618;10.764;2023-05-19T10:15:19;93030.56;;;16.17;65.98
57248;BME280;55809;46.618;10.764;2023-05-19T10:17:48;93032.19;;;16.14;65.74
57248;BME280;55809;46.618;10.764;2023-05-19T10:20:19;92987.47;;;15.86;65.53
57248;BME280;55809;46.618;10.764;2023-05-19T10:22:50;92998.00;;;15.84;65.07
57248;BME280;55809;46.618;10.764;2023-05-19T10:25:21;93031.44;;;16.14;66.69
57248;BME280;55809;46.618;10.764;2023-05-19T10:27:53;93016.16;;;16.04;67.22
57248;BME280;55809;46.618;10.764;2023-05-19T10:30:25;93030.69;;;16.13;66.31
57248;BME280;55809;46.618;10.764;2023-05-19T10:32:58;93027.72;;;16.08;66.57
57248;BME280;55809;46.618;10.764;2023-05-19T10:35:46;93017.97;;;15.94;66.59
57248;BME280;55809;46.618;10.764;2023-05-19T10:38:30;93023.94;;;16.18;66.53
57248;BME280;55809;46.618;10.764;2023-05-19T10:41:05;93024.38;;;16.16;65.74
57248;BME280;55809;46.618;10.764;2023-05-19T10:43:43;93028.28;;;16.15;66.61
57248;BME280;55809;46.618;10.764;2023-05-19T10:46:12;93028.50;;;16.21;68.47
57248;BME280;55809;46.618;10.764;2023-05-19T10:48:43;93014.09;;;16.08;67.39
57248;BME280;55809;46.618;10.764;2023-05-19T10:51:11;93001.63;;;15.94;66.49
57248;BME280;55809;46.618;10.764;2023-05-19T10:53:44;93025.19;;;16.01;69.04
57248;BME280;55809;46.618;10.764;2023-05-19T10:56:27;93013.69;;;16.09;69.37
57248;BME280;55809;46.618;10.764;2023-05-19T10:59:02;93023.31;;;16.27;69.63
57248;BME280;55809;46.618;10.764;2023-05-19T11:01:34;92992.56;;;16.13;66.73
57248;BME280;55809;46.618;10.764;2023-05-19T11:04:06;93014.66;;;16.15;65.20
57248;BME280;55809;46.618;10.764;2023-05-19T11:06:37;93029.66;;;16.07;63.66
57248;BME280;55809;46.618;10.764;2023-05-19T11:09:17;92976.34;;;15.64;64.27
57248;BME280;55809;46.618;10.764;2023-05-19T11:11:48;92996.69;;;15.76;64.66
57248;BME280;55809;46.618;10.764;2023-05-19T11:14:17;92987.97;;;15.81;63.44
57248;BME280;55809;46.618;10.764;2023-05-19T11:16:48;92981.69;;;15.84;63.11
57248;BME280;55809;46.618;10.764;2023-05-19T11:19:25;92970.84;;;15.68;63.87
57248;BME280;55809;46.618;10.764;2023-05-19T11:22:09;93023.97;;;16.02;62.55
57248;BME280;55809;46.618;10.764;2023-05-19T11:24:44;93013.19;;;15.98;63.66
57248;BME280;55809;46.618;10.764;2023-05-19T11:27:24;92971.19;;;15.70;62.95
57248;BME280;55809;46.618;10.764;2023-05-19T11:29:53;92917.72;;;15.18;63.08
57248;BME280;55809;46.618;10.764;2023-05-19T11:32:28;93009.09;;;15.77;64.61
57248;BME280;55809;46.618;10.764;2023-05-19T11:35:05;92900.56;;;15.21;64.11
57248;BME280;55809;46.618;10.764;2023-05-19T11:37:37;92960.13;;;15.61;62.55
57248;BME280;55809;46.618;10.764;2023-05-19T11:40:14;92903.00;;;15.15;63.73
57248;BME280;55809;46.618;10.764;2023-05-19T11:42:48;92957.69;;;15.66;63.88
57248;BME280;55809;46.618;10.764;2023-05-19T11:45:23;92936.03;;;15.46;64.06
57248;BME280;55809;46.618;10.764;2023-05-19T11:47:54;92952.56;;;15.52;63.78
57248;BME280;55809;46.618;10.764;2023-05-19T11:50:23;92907.13;;;15.07;63.92
57248;BME280;55809;46.618;10.764;2023-05-19T11:52:51;92904.97;;;15.15;65.19
57248;BME280;55809;46.618;10.764;2023-05-19T11:55:40;92908.25;;;15.22;63.47
57248;BME280;55809;46.618;10.764;2023-05-19T11:58:10;92947.66;;;15.47;63.93
57248;BME280;55809;46.618;10.764;2023-05-19T12:00:43;92889.25;;;15.06;63.07
57248;BME280;55809;46.618;10.764;2023-05-19T12:03:21;92928.53;;;15.51;63.54
57248;BME280;55809;46.618;10.764;2023-05-19T12:05:54;92905.09;;;15.40;61.88
57248;BME280;55809;46.618;10.764;2023-05-19T12:08:21;92945.84;;;15.73;60.95
57248;BME280;55809;46.618;10.764;2023-05-19T12:10:53;92906.75;;;15.51;61.78
57248;BME280;55809;46.618;10.764;2023-05-19T12:13:20;92972.09;;;15.92;61.56
57248;BME280;55809;46.618;10.764;2023-05-19T12:15:49;92961.22;;;15.92;61.92
57248;BME280;55809;46.618;10.764;2023-05-19T12:18:28;92877.31;;;15.33;60.79
57248;BME280;55809;46.618;10.764;2023-05-19T12:21:19;92930.97;;;15.90;60.47
57248;BME280;55809;46.618;10.764;2023-05-19T12:23:53;92880.19;;;15.71;60.28
57248;BME280;55809;46.618;10.764;2023-05-19T12:26:23;92925.69;;;16.25;59.32
57248;BME280;55809;46.618;10.764;2023-05-19T12:28:54;92891.34;;;16.15;58.55
57248;BME280;55809;46.618;10.764;2023-05-19T12:31:25;92918.28;;;16.64;60.40
57248;BME280;55809;46.618;10.764;2023-05-19T12:33:55;92953.25;;;17.17;60.98
57248;BME280;55809;46.618;10.764;2023-05-19T12:36:28;92944.94;;;17.20;59.42
57248;BME280;55809;46.618;10.764;2023-05-19T12:38:56;92911.50;;;16.94;58.40
57248;BME280;55809;46.618;10.764;2023-05-19T12:41:28;92892.56;;;16.78;57.99
57248;BME280;55809;46.618;10.764;2023-05-19T12:43:55;92939.94;;;17.19;58.96
57248;BME280;55809;46.618;10.764;2023-05-19T12:46:22;92925.13;;;17.07;57.60
57248;BME280;55809;46.618;10.764;2023-05-19T12:48:57;92935.84;;;17.01;57.96
57248;BME280;55809;46.618;10.764;2023-05-19T12:51:25;92908.94;;;16.65;56.05
57248;BME280;55809;46.618;10.764;2023-05-19T12:53:57;92868.28;;;16.32;58.16
57248;BME280;55809;46.618;10.764;2023-05-19T12:56:26;92921.03;;;16.90;56.78
57248;BME280;55809;46.618;10.764;2023-05-19T12:58:54;92931.44;;;17.17;57.65
57248;BME280;55809;46.618;10.764;2023-05-19T13:01:29;92917.25;;;17.22;56.02
57248;BME280;55809;46.618;10.764;2023-05-19T13:03:59;92895.97;;;17.17;56.51
57248;BME280;55809;46.618;10.764;2023-05-19T13:06:41;92915.50;;;17.28;57.07
57248;BME280;55809;46.618;10.764;2023-05-19T13:09:15;92919.44;;;17.14;56.69
57248;BME280;55809;46.618;10.764;2023-05-19T13:11:46;92913.47;;;16.94;58.21